createdAt,value
2016-12-19T00:00:17.942Z,0
2016-12-19T00:01:18.247Z,0
2016-12-19T00:02:18.531Z,0
2016-12-19T00:03:17.884Z,0
2016-12-19T00:04:18.203Z,0
2016-12-19T00:05:18.171Z,0
2016-12-19T00:06:17.842Z,0
2016-12-19T00:07:18.164Z,0
2016-12-19T00:08:17.801Z,0
2016-12-19T00:09:18.097Z,0
2016-12-19T00:10:17.760Z,0
2016-12-19T00:11:18.061Z,0
2016-12-19T00:12:18.037Z,0
2016-12-19T00:13:17.709Z,0
2016-12-19T00:14:17.691Z,0
2016-12-19T00:15:17.995Z,0
2016-12-19T00:16:17.654Z,0
2016-12-19T00:17:17.947Z,0
2016-12-19T00:18:17.939Z,0
2016-12-19T00:19:17.914Z,0
2016-12-19T00:20:17.583Z,0
2016-12-19T00:21:18.234Z,0
2016-12-19T00:22:17.876Z,0
2016-12-19T00:23:17.546Z,0
2016-12-19T00:24:17.733Z,0
2016-12-19T00:25:17.505Z,0
2016-12-19T00:26:17.482Z,0
2016-12-19T00:27:17.464Z,0
2016-12-19T00:28:17.445Z,0
2016-12-19T00:29:17.427Z,0
2016-12-19T00:30:17.404Z,0
2016-12-19T00:31:17.700Z,0
2016-12-19T00:32:17.368Z,0
2016-12-19T00:33:17.664Z,0
2016-12-19T00:34:17.329Z,0
2016-12-19T00:35:17.315Z,0
2016-12-19T00:36:17.300Z,0
2016-12-19T00:37:17.591Z,0
2016-12-19T00:38:17.573Z,0
2016-12-19T00:39:17.866Z,0
2016-12-19T00:40:17.226Z,0
2016-12-19T00:41:17.520Z,0
2016-12-19T00:42:18.127Z,0
2016-12-19T00:43:17.172Z,0
2016-12-19T00:44:17.173Z,0
2016-12-19T00:45:17.443Z,0
2016-12-19T00:46:17.434Z,0
2016-12-19T00:47:17.127Z,0
2016-12-19T00:48:17.113Z,0
2016-12-19T00:49:17.094Z,0
2016-12-19T00:50:17.046Z,0
2016-12-19T00:51:17.080Z,0
2016-12-19T00:52:17.010Z,0
2016-12-19T00:53:16.989Z,0
2016-12-19T00:54:16.970Z,0
2016-12-19T00:55:16.955Z,0
2016-12-19T00:56:16.938Z,0
2016-12-19T00:57:16.918Z,0
2016-12-19T00:58:16.904Z,0
2016-12-19T00:59:16.890Z,0
2016-12-19T01:00:16.862Z,0
2016-12-19T01:01:16.852Z,0
2016-12-19T01:02:17.138Z,0
2016-12-19T01:03:16.816Z,0
2016-12-19T01:04:16.826Z,0
2016-12-19T01:05:17.080Z,0
2016-12-19T01:06:16.756Z,0
2016-12-19T01:07:16.739Z,0
2016-12-19T01:08:17.345Z,0
2016-12-19T01:09:16.708Z,0
2016-12-19T01:10:16.691Z,0
2016-12-19T01:11:16.699Z,0
2016-12-19T01:12:16.646Z,0
2016-12-19T01:13:16.631Z,0
2016-12-19T01:14:17.246Z,0
2016-12-19T01:15:16.599Z,0
2016-12-19T01:16:16.889Z,0
2016-12-19T01:17:16.871Z,0
2016-12-19T01:18:16.545Z,0
2016-12-19T01:19:16.838Z,0
2016-12-19T01:20:16.818Z,0
2016-12-19T01:21:16.479Z,0
2016-12-19T01:22:16.482Z,0
2016-12-19T01:23:16.772Z,0
2016-12-19T01:24:16.747Z,0
2016-12-19T01:25:16.732Z,0
2016-12-19T01:26:16.710Z,0
2016-12-19T01:27:16.996Z,0
2016-12-19T01:28:16.671Z,0
2016-12-19T01:29:16.969Z,0
2016-12-19T01:30:16.321Z,0
2016-12-19T01:31:16.305Z,0
2016-12-19T01:32:16.288Z,0
2016-12-19T01:33:16.268Z,0
2016-12-19T01:34:16.569Z,0
2016-12-19T01:35:16.228Z,0
2016-12-19T01:36:16.527Z,0
2016-12-19T01:37:16.202Z,0
2016-12-19T01:38:16.178Z,0
2016-12-19T01:39:16.466Z,0
2016-12-19T01:40:16.145Z,0
2016-12-19T01:41:16.129Z,0
2016-12-19T01:42:16.105Z,0
2016-12-19T01:43:16.810Z,0
2016-12-19T01:44:16.403Z,0
2016-12-19T01:45:16.061Z,0
2016-12-19T01:46:16.347Z,0
2016-12-19T01:47:16.013Z,0
2016-12-19T01:48:15.995Z,0
2016-12-19T01:49:16.298Z,0
2016-12-19T01:50:16.270Z,0
2016-12-19T01:51:15.948Z,0
2016-12-19T01:52:15.926Z,0
2016-12-19T01:53:15.906Z,0
2016-12-19T01:54:15.889Z,0
2016-12-19T01:55:16.185Z,0
2016-12-19T01:56:15.853Z,0
2016-12-19T01:57:16.144Z,0
2016-12-19T01:58:16.120Z,0
2016-12-19T01:59:16.114Z,0
2016-12-19T02:00:15.786Z,0
2016-12-19T02:01:15.763Z,0
2016-12-19T02:02:15.746Z,0
2016-12-19T02:03:15.723Z,0
2016-12-19T02:04:16.021Z,0
2016-12-19T02:05:15.693Z,0
2016-12-19T02:06:15.669Z,0
2016-12-19T02:07:15.974Z,0
2016-12-19T02:08:15.638Z,0
2016-12-19T02:09:15.947Z,0
2016-12-19T02:10:15.912Z,0
2016-12-19T02:11:15.582Z,0
2016-12-19T02:12:15.570Z,0
2016-12-19T02:13:15.542Z,0
2016-12-19T02:14:15.527Z,0
2016-12-19T02:15:15.512Z,0
2016-12-19T02:16:15.494Z,0
2016-12-19T02:17:15.481Z,0
2016-12-19T02:18:15.457Z,0
2016-12-19T02:19:15.744Z,0
2016-12-19T02:20:15.421Z,0
2016-12-19T02:21:15.396Z,0
2016-12-19T02:22:15.379Z,0
2016-12-19T02:23:16.009Z,0
2016-12-19T02:24:15.858Z,0
2016-12-19T02:25:15.331Z,0
2016-12-19T02:26:15.988Z,0
2016-12-19T02:27:15.603Z,0
2016-12-19T02:28:15.271Z,0
2016-12-19T02:29:15.250Z,0
2016-12-19T02:30:15.252Z,0
2016-12-19T02:31:15.223Z,0
2016-12-19T02:32:15.831Z,0
2016-12-19T02:33:15.529Z,0
2016-12-19T02:34:15.166Z,0
2016-12-19T02:35:15.464Z,0
2016-12-19T02:36:15.444Z,0
2016-12-19T02:37:15.114Z,0
2016-12-19T02:38:15.094Z,0
2016-12-19T02:39:15.075Z,0
2016-12-19T02:40:15.369Z,0
2016-12-19T02:41:15.039Z,0
2016-12-19T02:42:15.031Z,0
2016-12-19T02:43:15.001Z,0
2016-12-19T02:44:14.988Z,0
2016-12-19T02:45:14.982Z,0
2016-12-19T02:46:14.948Z,0
2016-12-19T02:47:14.931Z,0
2016-12-19T02:48:14.916Z,0
2016-12-19T02:49:14.895Z,0
2016-12-19T02:50:14.879Z,0
2016-12-19T02:51:15.173Z,0
2016-12-19T02:52:14.846Z,0
2016-12-19T02:53:15.028Z,0
2016-12-19T02:54:14.805Z,0
2016-12-19T02:55:14.786Z,0
2016-12-19T02:56:14.778Z,0
2016-12-19T02:57:15.072Z,0
2016-12-19T02:58:14.742Z,0
2016-12-19T02:59:14.718Z,0
2016-12-19T03:00:15.009Z,0
2016-12-19T03:01:14.990Z,0
2016-12-19T03:02:14.662Z,0
2016-12-19T03:03:14.646Z,0
2016-12-19T03:04:14.937Z,0
2016-12-19T03:05:14.605Z,0
2016-12-19T03:06:14.620Z,0
2016-12-19T03:07:14.892Z,0
2016-12-19T03:08:14.872Z,0
2016-12-19T03:09:14.545Z,0
2016-12-19T03:10:14.838Z,0
2016-12-19T03:11:14.500Z,0
2016-12-19T03:12:14.483Z,0
2016-12-19T03:13:14.462Z,0
2016-12-19T03:14:14.447Z,0
2016-12-19T03:15:14.743Z,0
2016-12-19T03:16:14.720Z,0
2016-12-19T03:17:14.707Z,0
2016-12-19T03:18:14.377Z,0
2016-12-19T03:19:14.355Z,0
2016-12-19T03:20:14.333Z,0
2016-12-19T03:21:14.636Z,0
2016-12-19T03:22:14.611Z,0
2016-12-19T03:23:14.284Z,0
2016-12-19T03:24:14.263Z,0
2016-12-19T03:25:14.565Z,0
2016-12-19T03:26:14.228Z,0
2016-12-19T03:27:14.209Z,0
2016-12-19T03:28:14.503Z,0
2016-12-19T03:29:14.488Z,0
2016-12-19T03:30:14.154Z,0
2016-12-19T03:31:14.133Z,0
2016-12-19T03:32:14.431Z,0
2016-12-19T03:33:14.101Z,0
2016-12-19T03:34:14.708Z,0
2016-12-19T03:35:14.066Z,0
2016-12-19T03:36:14.357Z,0
2016-12-19T03:37:14.028Z,0
2016-12-19T03:38:14.010Z,0
2016-12-19T03:39:13.989Z,0
2016-12-19T03:40:14.282Z,0
2016-12-19T03:41:14.298Z,0
2016-12-19T03:42:14.563Z,0
2016-12-19T03:43:13.922Z,0
2016-12-19T03:44:13.898Z,0
2016-12-19T03:45:14.192Z,0
2016-12-19T03:46:14.168Z,0
2016-12-19T03:47:14.157Z,0
2016-12-19T03:48:14.141Z,0
2016-12-19T03:49:14.120Z,0
2016-12-19T03:50:14.102Z,0
2016-12-19T03:51:14.085Z,0
2016-12-19T03:52:14.069Z,0
2016-12-19T03:53:14.043Z,0
2016-12-19T03:54:13.715Z,0
2016-12-19T03:55:13.701Z,0
2016-12-19T03:56:13.678Z,0
2016-12-19T03:57:13.658Z,0
2016-12-19T03:58:13.965Z,0
2016-12-19T03:59:13.940Z,0
2016-12-19T04:00:13.605Z,0
2016-12-19T04:01:13.905Z,0
2016-12-19T04:02:13.881Z,0
2016-12-19T04:03:13.856Z,0
2016-12-19T04:04:13.842Z,0
2016-12-19T04:05:13.512Z,0
2016-12-19T04:06:13.807Z,0
2016-12-19T04:07:13.783Z,0
2016-12-19T04:08:13.459Z,0
2016-12-19T04:09:13.751Z,0
2016-12-19T04:10:13.731Z,0
2016-12-19T04:11:13.438Z,0
2016-12-19T04:12:13.401Z,0
2016-12-19T04:13:13.689Z,0
2016-12-19T04:14:13.347Z,0
2016-12-19T04:15:13.640Z,0
2016-12-19T04:16:13.305Z,0
2016-12-19T04:17:13.320Z,0
2016-12-19T04:18:13.281Z,0
2016-12-19T04:19:13.247Z,0
2016-12-19T04:20:13.231Z,0
2016-12-19T04:21:13.212Z,0
2016-12-19T04:22:13.506Z,0
2016-12-19T04:23:13.500Z,0
2016-12-19T04:24:13.677Z,0
2016-12-19T04:25:13.453Z,0
2016-12-19T04:26:13.121Z,0
2016-12-19T04:27:13.106Z,0
2016-12-19T04:28:13.088Z,0
2016-12-19T04:29:13.832Z,0
2016-12-19T04:30:13.397Z,0
2016-12-19T04:31:13.042Z,0
2016-12-19T04:32:13.011Z,0
2016-12-19T04:33:13.337Z,0
2016-12-19T04:34:12.977Z,0
2016-12-19T04:35:13.600Z,0
2016-12-19T04:36:12.933Z,0
2016-12-19T04:37:12.914Z,0
2016-12-19T04:38:12.897Z,0
2016-12-19T04:39:12.878Z,0
2016-12-19T04:40:12.911Z,0
2016-12-19T04:41:12.847Z,0
2016-12-19T04:42:12.829Z,0
2016-12-19T04:43:12.807Z,0
2016-12-19T04:44:12.790Z,0
2016-12-19T04:45:13.395Z,0
2016-12-19T04:46:12.774Z,0
2016-12-19T04:47:13.047Z,0
2016-12-19T04:48:12.725Z,0
2016-12-19T04:49:12.698Z,0
2016-12-19T04:50:12.990Z,0
2016-12-19T04:51:13.287Z,0
2016-12-19T04:52:12.643Z,0
2016-12-19T04:53:12.623Z,0
2016-12-19T04:54:12.599Z,0
2016-12-19T04:55:12.904Z,0
2016-12-19T04:56:12.566Z,0
2016-12-19T04:57:12.552Z,0
2016-12-19T04:58:12.547Z,0
2016-12-19T04:59:12.825Z,0
2016-12-19T05:00:12.496Z,0
2016-12-19T05:01:12.481Z,0
2016-12-19T05:02:12.457Z,0
2016-12-19T05:03:12.443Z,0
2016-12-19T05:04:12.735Z,0
2016-12-19T05:05:12.720Z,0
2016-12-19T05:06:13.020Z,0
2016-12-19T05:07:12.678Z,0
2016-12-19T05:08:13.004Z,0
2016-12-19T05:09:12.331Z,0
2016-12-19T05:10:12.367Z,0
2016-12-19T05:11:12.945Z,0
2016-12-19T05:12:12.630Z,0
2016-12-19T05:13:12.255Z,0
2016-12-19T05:14:12.556Z,0
2016-12-19T05:15:12.534Z,0
2016-12-19T05:16:12.200Z,0
2016-12-19T05:17:12.184Z,0
2016-12-19T05:18:12.484Z,0
2016-12-19T05:19:12.153Z,0
2016-12-19T05:20:12.443Z,0
2016-12-19T05:21:12.662Z,0
2016-12-19T05:22:12.106Z,0
2016-12-19T05:23:12.700Z,0
2016-12-19T05:24:12.058Z,0
2016-12-19T05:25:12.671Z,0
2016-12-19T05:26:12.341Z,0
2016-12-19T05:27:12.001Z,0
2016-12-19T05:28:11.989Z,0
2016-12-19T05:29:11.970Z,0
2016-12-19T05:30:11.966Z,0
2016-12-19T05:31:11.927Z,0
2016-12-19T05:32:11.909Z,0
2016-12-19T05:33:11.894Z,0
2016-12-19T05:34:12.191Z,0
2016-12-19T05:35:12.171Z,0
2016-12-19T05:36:11.838Z,0
2016-12-19T05:37:11.820Z,0
2016-12-19T05:38:12.128Z,0
2016-12-19T05:39:12.104Z,0
2016-12-19T05:40:12.077Z,0
2016-12-19T05:41:12.061Z,0
2016-12-19T05:42:11.753Z,0
2016-12-19T05:43:11.741Z,0
2016-12-19T05:44:12.012Z,0
2016-12-19T05:45:12.300Z,0
2016-12-19T05:46:11.988Z,0
2016-12-19T05:47:11.962Z,0
2016-12-19T05:48:11.627Z,0
2016-12-19T05:49:11.598Z,0
2016-12-19T05:50:11.584Z,0
2016-12-19T05:51:12.277Z,0
2016-12-19T05:52:11.554Z,0
2016-12-19T05:53:11.535Z,0
2016-12-19T05:54:11.510Z,0
2016-12-19T05:55:11.489Z,0
2016-12-19T05:56:11.783Z,0
2016-12-19T05:57:11.461Z,0
2016-12-19T05:58:12.087Z,0
2016-12-19T05:59:11.416Z,0
2016-12-19T06:00:11.399Z,0
2016-12-19T06:01:11.381Z,0
2016-12-19T06:02:11.357Z,0
2016-12-19T06:03:11.343Z,0
2016-12-19T06:04:11.953Z,0
2016-12-19T06:05:11.302Z,0
2016-12-19T06:06:12.382Z,0
2016-12-19T06:07:11.606Z,0
2016-12-19T06:08:11.568Z,0
2016-12-19T06:09:11.239Z,0
2016-12-19T06:10:11.218Z,0
2016-12-19T06:11:11.507Z,0
2016-12-19T06:12:11.804Z,0
2016-12-19T06:13:11.468Z,0
2016-12-19T06:14:11.135Z,0
2016-12-19T06:15:11.437Z,0
2016-12-19T06:16:11.417Z,0
2016-12-19T06:17:11.086Z,0
2016-12-19T06:18:11.378Z,0
2016-12-19T06:19:11.696Z,0
2016-12-19T06:20:11.037Z,0
2016-12-19T06:21:11.635Z,0
2016-12-19T06:22:11.302Z,0
2016-12-19T06:23:10.975Z,0
2016-12-19T06:24:11.364Z,0
2016-12-19T06:25:10.946Z,0
2016-12-19T06:26:10.921Z,0
2016-12-19T06:27:10.899Z,0
2016-12-19T06:28:11.197Z,0
2016-12-19T06:29:10.864Z,0
2016-12-19T06:30:11.172Z,0
2016-12-19T06:31:10.855Z,0
2016-12-19T06:32:10.843Z,0
2016-12-19T06:33:10.817Z,0
2016-12-19T06:34:11.097Z,0
2016-12-19T06:35:10.762Z,0
2016-12-19T06:36:11.417Z,0
2016-12-19T06:37:10.725Z,0
2016-12-19T06:38:11.032Z,0
2016-12-19T06:39:10.681Z,0
2016-12-19T06:40:10.664Z,0
2016-12-19T06:41:11.588Z,0
2016-12-19T06:42:10.941Z,0
2016-12-19T06:43:10.918Z,0
2016-12-19T06:44:10.590Z,0
2016-12-19T06:45:10.574Z,0
2016-12-19T06:46:10.880Z,0
2016-12-19T06:47:10.565Z,0
2016-12-19T06:48:10.828Z,0
2016-12-19T06:49:10.498Z,0
2016-12-19T06:50:10.482Z,0
2016-12-19T06:51:10.776Z,0
2016-12-19T06:52:10.441Z,0
2016-12-19T06:53:10.740Z,0
2016-12-19T06:54:10.717Z,0
2016-12-19T06:55:11.013Z,0
2016-12-19T06:56:10.373Z,0
2016-12-19T06:57:10.350Z,0
2016-12-19T06:58:10.338Z,0
2016-12-19T06:59:10.955Z,0
2016-12-19T07:00:10.620Z,0
2016-12-19T07:01:10.901Z,0
2016-12-19T07:02:11.031Z,0
2016-12-19T07:03:10.562Z,0
2016-12-19T07:04:10.896Z,0
2016-12-19T07:05:10.203Z,0
2016-12-19T07:06:10.192Z,0
2016-12-19T07:07:10.170Z,0
2016-12-19T07:08:10.145Z,0
2016-12-19T07:09:10.441Z,0
2016-12-19T07:10:10.424Z,0
2016-12-19T07:11:10.090Z,0
2016-12-19T07:12:10.076Z,0
2016-12-19T07:13:10.372Z,0
2016-12-19T07:14:10.036Z,0
2016-12-19T07:15:10.333Z,0
2016-12-19T07:16:10.309Z,0
2016-12-19T07:17:10.292Z,0
2016-12-19T07:18:09.962Z,0
2016-12-19T07:19:10.252Z,0
2016-12-19T07:20:10.242Z,0
2016-12-19T07:21:09.906Z,0
2016-12-19T07:22:09.884Z,0
2016-12-19T07:23:09.877Z,0
2016-12-19T07:24:09.846Z,0
2016-12-19T07:25:10.171Z,0
2016-12-19T07:26:09.839Z,0
2016-12-19T07:27:09.789Z,0
2016-12-19T07:28:09.771Z,0
2016-12-19T07:29:09.754Z,0
2016-12-19T07:30:09.741Z,0
2016-12-19T07:31:09.722Z,0
2016-12-19T07:32:09.700Z,0
2016-12-19T07:33:09.682Z,0
2016-12-19T07:34:09.981Z,0
2016-12-19T07:35:09.958Z,0
2016-12-19T07:36:09.620Z,0
2016-12-19T07:37:09.608Z,0
2016-12-19T07:38:09.585Z,0
2016-12-19T07:39:09.565Z,0
2016-12-19T07:40:09.556Z,0
2016-12-19T07:41:09.844Z,0
2016-12-19T07:42:09.820Z,0
2016-12-19T07:43:09.499Z,0
2016-12-19T07:44:09.476Z,0
2016-12-19T07:45:09.783Z,5
2016-12-19T07:46:09.754Z,5
2016-12-19T07:47:09.425Z,5
2016-12-19T07:48:09.398Z,5
2016-12-19T07:49:09.732Z,5
2016-12-19T07:50:09.678Z,5
2016-12-19T07:51:09.358Z,5
2016-12-19T07:52:09.994Z,5
2016-12-19T07:53:09.645Z,5
2016-12-19T07:54:09.598Z,5
2016-12-19T07:55:09.595Z,5
2016-12-19T07:56:09.247Z,5
2016-12-19T07:57:09.237Z,10
2016-12-19T07:58:09.521Z,10
2016-12-19T07:59:09.504Z,10
2016-12-19T08:00:09.794Z,15
2016-12-19T08:01:09.154Z,15
2016-12-19T08:02:09.132Z,20
2016-12-19T08:03:09.116Z,25
2016-12-19T08:04:09.427Z,30
2016-12-19T08:05:09.393Z,25
2016-12-19T08:06:09.087Z,25
2016-12-19T08:07:09.356Z,25
2016-12-19T08:08:09.330Z,25
2016-12-19T08:09:09.325Z,30
2016-12-19T08:10:08.984Z,30
2016-12-19T08:11:09.613Z,30
2016-12-19T08:12:09.271Z,35
2016-12-19T08:13:08.928Z,35
2016-12-19T08:14:08.911Z,35
2016-12-19T08:15:09.208Z,35
2016-12-19T08:16:08.869Z,35
2016-12-19T08:17:08.850Z,35
2016-12-19T08:18:09.148Z,40
2016-12-19T08:19:08.816Z,45
2016-12-19T08:20:08.803Z,45
2016-12-19T08:21:08.782Z,40
2016-12-19T08:22:08.758Z,40
2016-12-19T08:23:09.044Z,40
2016-12-19T08:24:09.030Z,45
2016-12-19T08:25:08.904Z,45
2016-12-19T08:26:08.878Z,50
2016-12-19T08:27:09.198Z,50
2016-12-19T08:28:09.018Z,50
2016-12-19T08:29:08.947Z,55
2016-12-19T08:30:08.918Z,55
2016-12-19T08:31:08.590Z,60
2016-12-19T08:32:08.574Z,55
2016-12-19T08:33:08.859Z,55
2016-12-19T08:34:08.559Z,55
2016-12-19T08:35:08.512Z,60
2016-12-19T08:36:08.806Z,60
2016-12-19T08:37:08.472Z,60
2016-12-19T08:38:08.452Z,60
2016-12-19T08:39:08.750Z,60
2016-12-19T08:40:08.734Z,60
2016-12-19T08:41:08.400Z,65
2016-12-19T08:42:08.380Z,65
2016-12-19T08:43:08.991Z,65
2016-12-19T08:44:08.347Z,65
2016-12-19T08:45:08.320Z,65
2016-12-19T08:46:08.301Z,65
2016-12-19T08:47:08.284Z,65
2016-12-19T08:48:08.267Z,65
2016-12-19T08:49:08.257Z,70
2016-12-19T08:50:08.233Z,70
2016-12-19T08:51:08.214Z,70
2016-12-19T08:52:08.191Z,70
2016-12-19T08:53:08.174Z,70
2016-12-19T08:54:08.156Z,70
2016-12-19T08:55:08.130Z,70
2016-12-19T08:56:08.113Z,70
2016-12-19T08:57:08.401Z,70
2016-12-19T08:58:08.104Z,70
2016-12-19T08:59:08.053Z,70
2016-12-19T09:00:08.039Z,75
2016-12-19T09:01:08.337Z,75
2016-12-19T09:02:08.003Z,75
2016-12-19T09:03:07.979Z,75
2016-12-19T09:04:08.275Z,75
2016-12-19T09:05:07.959Z,75
2016-12-19T09:06:07.927Z,75
2016-12-19T09:07:07.907Z,75
2016-12-19T09:08:08.203Z,80
2016-12-19T09:09:08.197Z,80
2016-12-19T09:10:07.849Z,80
2016-12-19T09:11:07.827Z,80
2016-12-19T09:12:07.811Z,80
2016-12-19T09:13:07.794Z,80
2016-12-19T09:14:08.088Z,80
2016-12-19T09:15:09.012Z,80
2016-12-19T09:16:07.735Z,80
2016-12-19T09:17:07.715Z,80
2016-12-19T09:18:08.018Z,85
2016-12-19T09:19:07.986Z,85
2016-12-19T09:20:07.658Z,85
2016-12-19T09:21:07.971Z,85
2016-12-19T09:22:07.625Z,85
2016-12-19T09:23:07.923Z,85
2016-12-19T09:24:07.917Z,90
2016-12-19T09:25:07.882Z,90
2016-12-19T09:26:07.551Z,90
2016-12-19T09:27:07.529Z,90
2016-12-19T09:28:07.825Z,95
2016-12-19T09:29:07.543Z,95
2016-12-19T09:30:07.474Z,95
2016-12-19T09:31:07.763Z,95
2016-12-19T09:32:07.439Z,100
2016-12-19T09:33:07.416Z,105
2016-12-19T09:34:07.451Z,105
2016-12-19T09:35:07.395Z,105
2016-12-19T09:36:07.365Z,105
2016-12-19T09:37:07.351Z,105
2016-12-19T09:38:07.323Z,105
2016-12-19T09:39:07.620Z,110
2016-12-19T09:40:07.599Z,115
2016-12-19T09:41:07.287Z,115
2016-12-19T09:42:07.883Z,115
2016-12-19T09:43:07.562Z,120
2016-12-19T09:44:07.896Z,120
2016-12-19T09:45:07.216Z,120
2016-12-19T09:46:07.811Z,125
2016-12-19T09:47:07.492Z,125
2016-12-19T09:48:07.146Z,120
2016-12-19T09:49:07.460Z,120
2016-12-19T09:50:07.731Z,125
2016-12-19T09:51:07.733Z,125
2016-12-19T09:52:07.396Z,135
2016-12-19T09:53:07.365Z,145
2016-12-19T09:54:07.026Z,150
2016-12-19T09:55:07.021Z,155
2016-12-19T09:56:06.993Z,175
2016-12-19T09:57:06.976Z,195
2016-12-19T09:58:07.271Z,200
2016-12-19T09:59:07.275Z,195
2016-12-19T10:00:06.926Z,195
2016-12-19T10:01:07.227Z,215
2016-12-19T10:02:06.893Z,220
2016-12-19T10:03:06.897Z,225
2016-12-19T10:04:07.494Z,225
2016-12-19T10:05:06.918Z,205
2016-12-19T10:06:07.446Z,210
2016-12-19T10:07:06.812Z,230
2016-12-19T10:08:06.790Z,230
2016-12-19T10:09:07.086Z,235
2016-12-19T10:10:06.756Z,260
2016-12-19T10:11:07.369Z,280
2016-12-19T10:12:07.037Z,290
2016-12-19T10:13:07.025Z,290
2016-12-19T10:14:06.698Z,290
2016-12-19T10:15:06.680Z,295
2016-12-19T10:16:06.667Z,300
2016-12-19T10:17:06.657Z,285
2016-12-19T10:18:06.651Z,305
2016-12-19T10:19:06.944Z,295
2016-12-19T10:20:06.608Z,260
2016-12-19T10:21:06.602Z,205
2016-12-19T10:22:07.534Z,220
2016-12-19T10:23:06.572Z,265
2016-12-19T10:24:06.556Z,270
2016-12-19T10:25:06.745Z,220
2016-12-19T10:26:06.533Z,185
2016-12-19T10:27:06.524Z,180
2016-12-19T10:28:06.497Z,190
2016-12-19T10:29:06.501Z,200
2016-12-19T10:30:06.477Z,215
2016-12-19T10:31:06.463Z,210
2016-12-19T10:32:06.455Z,215
2016-12-19T10:33:06.438Z,215
2016-12-19T10:34:06.423Z,210
2016-12-19T10:35:06.413Z,240
2016-12-19T10:36:06.397Z,260
2016-12-19T10:37:06.393Z,280
2016-12-19T10:38:06.375Z,295
2016-12-19T10:39:06.358Z,325
2016-12-19T10:40:06.359Z,315
2016-12-19T10:41:06.967Z,270
2016-12-19T10:42:06.636Z,225
2016-12-19T10:43:06.307Z,205
2016-12-19T10:44:06.608Z,205
2016-12-19T10:45:06.280Z,235
2016-12-19T10:46:06.275Z,255
2016-12-19T10:47:06.904Z,265
2016-12-19T10:48:06.247Z,280
2016-12-19T10:49:06.261Z,240
2016-12-19T10:50:06.221Z,260
2016-12-19T10:51:06.518Z,190
2016-12-19T10:52:06.210Z,220
2016-12-19T10:53:06.185Z,220
2016-12-19T10:54:06.174Z,155
2016-12-19T10:55:06.169Z,155
2016-12-19T10:56:06.464Z,230
2016-12-19T10:57:06.445Z,205
2016-12-19T10:58:06.452Z,210
2016-12-19T10:59:06.447Z,235
2016-12-19T11:00:06.434Z,255
2016-12-19T11:01:06.420Z,225
2016-12-19T11:02:06.078Z,220
2016-12-19T11:03:06.069Z,270
2016-12-19T11:04:06.053Z,205
2016-12-19T11:05:06.401Z,235
2016-12-19T11:06:06.028Z,240
2016-12-19T11:07:06.015Z,225
2016-12-19T11:08:06.004Z,215
2016-12-19T11:09:05.990Z,235
2016-12-19T11:10:06.004Z,250
2016-12-19T11:11:05.970Z,235
2016-12-19T11:12:06.264Z,260
2016-12-19T11:13:06.259Z,255
2016-12-19T11:14:06.242Z,250
2016-12-19T11:15:06.229Z,270
2016-12-19T11:16:06.250Z,275
2016-12-19T11:17:05.905Z,270
2016-12-19T11:18:05.889Z,275
2016-12-19T11:19:06.186Z,260
2016-12-19T11:20:06.212Z,225
2016-12-19T11:21:05.857Z,200
2016-12-19T11:22:05.838Z,180
2016-12-19T11:23:05.835Z,180
2016-12-19T11:24:05.846Z,160
2016-12-19T11:25:05.825Z,160
2016-12-19T11:26:06.202Z,150
2016-12-19T11:27:06.101Z,150
2016-12-19T11:28:06.304Z,150
2016-12-19T11:29:06.082Z,150
2016-12-19T11:30:05.954Z,155
2016-12-19T11:31:06.049Z,155
2016-12-19T11:32:05.726Z,150
2016-12-19T11:33:05.708Z,140
2016-12-19T11:34:06.011Z,145
2016-12-19T11:35:05.688Z,145
2016-12-19T11:36:05.728Z,140
2016-12-19T11:37:05.975Z,140
2016-12-19T11:38:05.649Z,140
2016-12-19T11:39:05.633Z,135
2016-12-19T11:40:05.623Z,135
2016-12-19T11:41:05.613Z,135
2016-12-19T11:42:05.909Z,135
2016-12-19T11:43:05.580Z,135
2016-12-19T11:44:05.569Z,130
2016-12-19T11:45:05.874Z,130
2016-12-19T11:46:05.882Z,130
2016-12-19T11:47:05.522Z,130
2016-12-19T11:48:05.517Z,130
2016-12-19T11:49:05.501Z,130
2016-12-19T11:50:05.483Z,130
2016-12-19T11:51:05.467Z,130
2016-12-19T11:52:05.455Z,130
2016-12-19T11:53:05.773Z,130
2016-12-19T11:54:05.426Z,130
2016-12-19T11:55:06.039Z,125
2016-12-19T11:56:05.706Z,125
2016-12-19T11:57:05.696Z,120
2016-12-19T11:58:05.396Z,125
2016-12-19T11:59:05.665Z,125
2016-12-19T12:00:05.334Z,125
2016-12-19T12:01:05.321Z,125
2016-12-19T12:02:05.305Z,130
2016-12-19T12:03:05.604Z,130
2016-12-19T12:04:05.277Z,135
2016-12-19T12:05:05.262Z,135
2016-12-19T12:06:06.183Z,150
2016-12-19T12:07:05.551Z,150
2016-12-19T12:08:05.223Z,155
2016-12-19T12:09:05.564Z,160
2016-12-19T12:10:05.502Z,165
2016-12-19T12:11:05.182Z,185
2016-12-19T12:12:05.834Z,235
2016-12-19T12:13:05.493Z,295
2016-12-19T12:14:05.139Z,335
2016-12-19T12:15:05.122Z,340
2016-12-19T12:16:05.102Z,335
2016-12-19T12:17:05.090Z,345
2016-12-19T12:18:05.071Z,350
2016-12-19T12:19:05.066Z,350
2016-12-19T12:20:05.362Z,345
2016-12-19T12:21:05.089Z,340
2016-12-19T12:22:05.023Z,330
2016-12-19T12:23:05.024Z,320
2016-12-19T12:24:04.995Z,330
2016-12-19T12:25:05.206Z,315
2016-12-19T12:26:04.974Z,330
2016-12-19T12:27:04.966Z,325
2016-12-19T12:28:04.958Z,335
2016-12-19T12:29:04.977Z,130
2016-12-19T12:30:04.930Z,330
2016-12-19T12:31:04.925Z,330
2016-12-19T12:32:05.229Z,325
2016-12-19T12:33:04.907Z,325
2016-12-19T12:34:05.214Z,330
2016-12-19T12:35:05.520Z,330
2016-12-19T12:36:04.890Z,325
2016-12-19T12:37:05.518Z,310
2016-12-19T12:38:05.213Z,285
2016-12-19T12:39:04.857Z,330
2016-12-19T12:40:04.856Z,315
2016-12-19T12:41:05.481Z,315
2016-12-19T12:42:04.842Z,305
2016-12-19T12:43:04.832Z,320
2016-12-19T12:44:04.822Z,320
2016-12-19T12:45:04.816Z,315
2016-12-19T12:46:04.811Z,305
2016-12-19T12:47:04.810Z,305
2016-12-19T12:48:04.793Z,305
2016-12-19T12:49:04.790Z,300
2016-12-19T12:50:04.789Z,225
2016-12-19T12:51:04.777Z,275
2016-12-19T12:52:04.772Z,260
2016-12-19T12:53:04.769Z,125
2016-12-19T12:54:05.080Z,275
2016-12-19T12:55:04.757Z,275
2016-12-19T12:56:05.068Z,290
2016-12-19T12:57:04.746Z,280
2016-12-19T12:58:05.061Z,275
2016-12-19T12:59:04.743Z,280
2016-12-19T13:00:04.729Z,275
2016-12-19T13:01:05.043Z,275
2016-12-19T13:02:05.030Z,275
2016-12-19T13:03:04.719Z,270
2016-12-19T13:04:04.709Z,265
2016-12-19T13:05:05.030Z,275
2016-12-19T13:06:05.020Z,275
2016-12-19T13:07:04.689Z,265
2016-12-19T13:08:04.688Z,250
2016-12-19T13:09:05.003Z,250
2016-12-19T13:10:04.989Z,255
2016-12-19T13:11:04.674Z,240
2016-12-19T13:12:04.668Z,225
2016-12-19T13:13:04.664Z,240
2016-12-19T13:14:04.665Z,245
2016-12-19T13:15:04.651Z,250
2016-12-19T13:16:04.649Z,245
2016-12-19T13:17:04.693Z,205
2016-12-19T13:18:04.638Z,245
2016-12-19T13:19:04.632Z,240
2016-12-19T13:20:04.940Z,240
2016-12-19T13:21:04.630Z,240
2016-12-19T13:22:04.932Z,240
2016-12-19T13:23:04.616Z,240
2016-12-19T13:24:04.925Z,230
2016-12-19T13:25:04.595Z,230
2016-12-19T13:26:04.909Z,230
2016-12-19T13:27:04.913Z,230
2016-12-19T13:28:05.210Z,230
2016-12-19T13:29:04.921Z,225
2016-12-19T13:30:04.571Z,225
2016-12-19T13:31:04.888Z,225
2016-12-19T13:32:04.876Z,225
2016-12-19T13:33:04.557Z,220
2016-12-19T13:34:04.550Z,220
2016-12-19T13:35:04.544Z,225
2016-12-19T13:36:04.538Z,225
2016-12-19T13:37:04.583Z,225
2016-12-19T13:38:04.538Z,225
2016-12-19T13:39:04.526Z,220
2016-12-19T13:40:05.144Z,210
2016-12-19T13:41:04.514Z,210
2016-12-19T13:42:04.573Z,205
2016-12-19T13:43:04.514Z,200
2016-12-19T13:44:04.844Z,190
2016-12-19T13:45:04.491Z,180
2016-12-19T13:46:04.803Z,170
2016-12-19T13:47:04.476Z,145
2016-12-19T13:48:07.787Z,115
2016-12-19T13:49:04.467Z,100
2016-12-19T13:50:04.460Z,95
2016-12-19T13:51:04.874Z,90
2016-12-19T13:52:04.757Z,85
2016-12-19T13:53:04.747Z,85
2016-12-19T13:54:04.741Z,85
2016-12-19T13:55:04.417Z,90
2016-12-19T13:56:04.408Z,95
2016-12-19T13:57:04.416Z,90
2016-12-19T13:58:04.710Z,90
2016-12-19T13:59:04.401Z,90
2016-12-19T14:00:04.710Z,80
2016-12-19T14:01:04.714Z,75
2016-12-19T14:02:04.378Z,75
2016-12-19T14:03:04.984Z,75
2016-12-19T14:04:04.987Z,75
2016-12-19T14:05:04.671Z,75
2016-12-19T14:06:04.656Z,75
2016-12-19T14:07:04.678Z,75
2016-12-19T14:08:04.643Z,70
2016-12-19T14:09:04.294Z,70
2016-12-19T14:10:04.279Z,70
2016-12-19T14:11:04.309Z,70
2016-12-19T14:12:04.274Z,65
2016-12-19T14:13:04.585Z,65
2016-12-19T14:14:04.551Z,65
2016-12-19T14:15:04.419Z,65
2016-12-19T14:16:04.211Z,60
2016-12-19T14:17:04.526Z,60
2016-12-19T14:18:04.185Z,60
2016-12-19T14:19:04.494Z,60
2016-12-19T14:20:04.477Z,55
2016-12-19T14:21:04.143Z,55
2016-12-19T14:22:04.456Z,55
2016-12-19T14:23:04.435Z,50